sensor_id;sensor_type;location;lat;lon;timestamp;pressure;altitude;pressure_sealevel;temperature;humidity
19005;BME280;9635;52.078;8.648;2023-04-05T00:01:44;101294.56;;;3.01;49.68
19005;BME280;9635;52.078;8.648;2023-04-05T00:06:52;101288.72;;;2.91;49.27
19005;BME280;9635;52.078;8.648;2023-04-05T00:11:55;101286.53;;;2.77;49.26
19005;BME280;9635;52.078;8.648;2023-04-05T00:16:58;101285.50;;;2.81;49.67
19005;BME280;9635;52.078;8.648;2023-04-05T00:22:03;101284.66;;;2.81;49.59
19005;BME280;9635;52.078;8.648;2023-04-05T00:27:05;101278.94;;;2.67;49.87
19005;BME280;9635;52.078;8.648;2023-04-05T00:32:08;101283.06;;;2.75;50.16
19005;BME280;9635;52.078;8.648;2023-04-05T00:37:13;101269.53;;;2.58;49.72
19005;BME280;9635;52.078;8.648;2023-04-05T00:42:16;101274.88;;;2.56;49.68
19005;BME280;9635;52.078;8.648;2023-04-05T00:47:18;101273.56;;;2.42;49.72
19005;BME280;9635;52.078;8.648;2023-04-05T00:52:24;101269.78;;;2.49;50.66
19005;BME280;9635;52.078;8.648;2023-04-05T00:57:27;101269.53;;;2.58;50.42
19005;BME280;9635;52.078;8.648;2023-04-05T01:02:32;101265.94;;;2.59;50.73
19005;BME280;9635;52.078;8.648;2023-04-05T01:07:42;101261.38;;;2.63;51.49
19005;BME280;9635;52.078;8.648;2023-04-05T01:12:48;101255.50;;;2.53;51.19
19005;BME280;9635;52.078;8.648;2023-04-05T01:17:51;101248.44;;;2.52;51.45
19005;BME280;9635;52.078;8.648;2023-04-05T01:23:10;101251.09;;;2.53;51.11
19005;BME280;9635;52.078;8.648;2023-04-05T01:28:28;101257.69;;;2.40;50.88
19005;BME280;9635;52.078;8.648;2023-04-05T01:33:43;101262.16;;;2.38;51.22
19005;BME280;9635;52.078;8.648;2023-04-05T01:38:49;101244.28;;;2.18;51.41
19005;BME280;9635;52.078;8.648;2023-04-05T01:43:52;101244.69;;;2.06;51.91
19005;BME280;9635;52.078;8.648;2023-04-05T01:48:56;101243.22;;;1.95;52.27
19005;BME280;9635;52.078;8.648;2023-04-05T01:54:00;101232.19;;;1.81;52.56
19005;BME280;9635;52.078;8.648;2023-04-05T01:59:02;101233.44;;;1.69;53.09
19005;BME280;9635;52.078;8.648;2023-04-05T02:04:07;101225.38;;;1.72;53.30
19005;BME280;9635;52.078;8.648;2023-04-05T02:09:11;101228.28;;;1.65;53.46
19005;BME280;9635;52.078;8.648;2023-04-05T02:14:14;101219.59;;;1.60;53.90
19005;BME280;9635;52.078;8.648;2023-04-05T02:19:20;101217.19;;;1.52;54.31
19005;BME280;9635;52.078;8.648;2023-04-05T02:24:24;101216.53;;;1.45;54.31
19005;BME280;9635;52.078;8.648;2023-04-05T02:29:27;101229.19;;;1.34;54.86
19005;BME280;9635;52.078;8.648;2023-04-05T02:34:31;101223.53;;;1.46;55.39
19005;BME280;9635;52.078;8.648;2023-04-05T02:39:34;101216.03;;;1.61;54.92
19005;BME280;9635;52.078;8.648;2023-04-05T02:44:38;101226.63;;;1.61;54.92
19005;BME280;9635;52.078;8.648;2023-04-05T02:49:44;101218.69;;;1.31;55.05
19005;BME280;9635;52.078;8.648;2023-04-05T02:54:49;101212.59;;;1.29;55.20
19005;BME280;9635;52.078;8.648;2023-04-05T02:59:58;101216.59;;;1.13;55.50
19005;BME280;9635;52.078;8.648;2023-04-05T03:05:07;101210.97;;;0.92;55.50
19005;BME280;9635;52.078;8.648;2023-04-05T03:10:12;101216.72;;;0.75;56.38
19005;BME280;9635;52.078;8.648;2023-04-05T03:15:24;101204.38;;;0.76;56.53
19005;BME280;9635;52.078;8.648;2023-04-05T03:20:32;101204.13;;;0.85;56.70
19005;BME280;9635;52.078;8.648;2023-04-05T03:25:37;101197.66;;;0.95;56.85
19005;BME280;9635;52.078;8.648;2023-04-05T03:30:43;101192.28;;;0.66;56.73
19005;BME280;9635;52.078;8.648;2023-04-05T03:35:54;101187.66;;;0.41;57.48
19005;BME280;9635;52.078;8.648;2023-04-05T03:40:57;101195.59;;;0.41;57.81
19005;BME280;9635;52.078;8.648;2023-04-05T03:46:02;101189.28;;;0.47;57.86
19005;BME280;9635;52.078;8.648;2023-04-05T03:51:07;101182.25;;;0.78;58.02
19005;BME280;9635;52.078;8.648;2023-04-05T03:56:10;101190.81;;;0.88;57.72
19005;BME280;9635;52.078;8.648;2023-04-05T04:01:18;101184.91;;;0.78;57.05
19005;BME280;9635;52.078;8.648;2023-04-05T04:06:23;101187.22;;;0.58;57.11
19005;BME280;9635;52.078;8.648;2023-04-05T04:11:28;101195.72;;;0.36;58.39
19005;BME280;9635;52.078;8.648;2023-04-05T04:16:35;101196.88;;;0.25;58.62
19005;BME280;9635;52.078;8.648;2023-04-05T04:21:50;101182.88;;;0.23;58.83
19005;BME280;9635;52.078;8.648;2023-04-05T04:27:16;101189.78;;;0.27;59.10
19005;BME280;9635;52.078;8.648;2023-04-05T04:32:38;101190.72;;;0.24;58.73
19005;BME280;9635;52.078;8.648;2023-04-05T04:38:06;101178.63;;;0.15;59.09
19005;BME280;9635;52.078;8.648;2023-04-05T04:43:21;101184.91;;;0.11;59.19
19005;BME280;9635;52.078;8.648;2023-04-05T04:48:45;101179.63;;;0.11;59.46
19005;BME280;9635;52.078;8.648;2023-04-05T04:54:04;101183.28;;;0.06;59.60
19005;BME280;9635;52.078;8.648;2023-04-05T04:59:07;101185.97;;;0.03;59.92
19005;BME280;9635;52.078;8.648;2023-04-05T05:04:11;101184.31;;;0.00;60.43
19005;BME280;9635;52.078;8.648;2023-04-05T05:09:16;101189.34;;;0.09;60.12
19005;BME280;9635;52.078;8.648;2023-04-05T05:14:24;101186.78;;;0.06;59.78
19005;BME280;9635;52.078;8.648;2023-04-05T05:19:27;101196.53;;;0.03;60.25
19005;BME280;9635;52.078;8.648;2023-04-05T05:24:33;101195.69;;;0.02;60.29
19005;BME280;9635;52.078;8.648;2023-04-05T05:29:36;101194.63;;;0.09;60.13
19005;BME280;9635;52.078;8.648;2023-04-05T05:34:39;101190.59;;;0.30;59.92
19005;BME280;9635;52.078;8.648;2023-04-05T05:39:43;101196.41;;;0.45;59.37
19005;BME280;9635;52.078;8.648;2023-04-05T05:44:46;101198.88;;;0.51;59.52
19005;BME280;9635;52.078;8.648;2023-04-05T05:49:49;101201.16;;;0.65;59.66
19005;BME280;9635;52.078;8.648;2023-04-05T05:54:53;101193.09;;;0.69;59.67
19005;BME280;9635;52.078;8.648;2023-04-05T05:59:56;101201.50;;;0.85;59.81
19005;BME280;9635;52.078;8.648;2023-04-05T06:04:59;101196.53;;;1.04;59.41
19005;BME280;9635;52.078;8.648;2023-04-05T06:10:04;101186.44;;;1.18;58.95
19005;BME280;9635;52.078;8.648;2023-04-05T06:15:08;101190.81;;;1.49;59.71
19005;BME280;9635;52.078;8.648;2023-04-05T06:20:12;101192.72;;;2.27;60.73
19005;BME280;9635;52.078;8.648;2023-04-05T06:25:16;101189.97;;;2.81;58.53
19005;BME280;9635;52.078;8.648;2023-04-05T06:30:19;101188.25;;;3.04;55.55
19005;BME280;9635;52.078;8.648;2023-04-05T06:35:23;101189.25;;;3.48;55.78
19005;BME280;9635;52.078;8.648;2023-04-05T06:40:29;101188.31;;;3.95;53.54
19005;BME280;9635;52.078;8.648;2023-04-05T06:45:32;101186.97;;;4.05;51.12
19005;BME280;9635;52.078;8.648;2023-04-05T06:50:35;101191.69;;;3.77;51.12
19005;BME280;9635;52.078;8.648;2023-04-05T06:55:39;101180.34;;;3.95;51.10
19005;BME280;9635;52.078;8.648;2023-04-05T07:00:43;101179.31;;;3.98;50.46
19005;BME280;9635;52.078;8.648;2023-04-05T07:05:49;101168.72;;;4.18;50.63
19005;BME280;9635;52.078;8.648;2023-04-05T07:10:54;101175.28;;;4.52;49.57
19005;BME280;9635;52.078;8.648;2023-04-05T07:16:01;101161.06;;;4.92;48.75
19005;BME280;9635;52.078;8.648;2023-04-05T07:21:04;101156.00;;;5.06;48.34
19005;BME280;9635;52.078;8.648;2023-04-05T07:26:08;101148.84;;;5.46;47.53
19005;BME280;9635;52.078;8.648;2023-04-05T07:31:13;101148.53;;;5.71;47.01
19005;BME280;9635;52.078;8.648;2023-04-05T07:36:17;101157.16;;;5.77;45.60
19005;BME280;9635;52.078;8.648;2023-04-05T07:41:21;101152.56;;;5.98;45.54
19005;BME280;9635;52.078;8.648;2023-04-05T07:46:24;101150.47;;;6.22;45.27
19005;BME280;9635;52.078;8.648;2023-04-05T07:51:27;101151.34;;;6.57;44.76
19005;BME280;9635;52.078;8.648;2023-04-05T07:56:34;101151.22;;;6.76;44.28
19005;BME280;9635;52.078;8.648;2023-04-05T08:01:38;101152.69;;;6.99;43.42
19005;BME280;9635;52.078;8.648;2023-04-05T08:06:41;101146.66;;;6.95;43.34
19005;BME280;9635;52.078;8.648;2023-04-05T08:11:45;101143.66;;;7.01;43.95
19005;BME280;9635;52.078;8.648;2023-04-05T08:16:48;101145.25;;;7.85;42.43
19005;BME280;9635;52.078;8.648;2023-04-05T08:21:51;101142.47;;;8.32;40.73
19005;BME280;9635;52.078;8.648;2023-04-05T08:26:55;101141.63;;;8.62;39.60
19005;BME280;9635;52.078;8.648;2023-04-05T08:31:58;101138.41;;;9.00;40.07
19005;BME280;9635;52.078;8.648;2023-04-05T08:37:01;101137.88;;;9.36;39.04
19005;BME280;9635;52.078;8.648;2023-04-05T08:42:10;101132.00;;;9.85;38.32
19005;BME280;9635;52.078;8.648;2023-04-05T08:47:17;101131.16;;;9.85;37.96
19005;BME280;9635;52.078;8.648;2023-04-05T08:52:21;101139.97;;;9.87;37.36
19005;BME280;9635;52.078;8.648;2023-04-05T08:57:27;101134.78;;;9.84;37.18
19005;BME280;9635;52.078;8.648;2023-04-05T09:02:33;101135.69;;;9.70;36.49
19005;BME280;9635;52.078;8.648;2023-04-05T09:07:37;101128.47;;;9.85;36.53
19005;BME280;9635;52.078;8.648;2023-04-05T09:12:42;101132.94;;;9.84;36.70
19005;BME280;9635;52.078;8.648;2023-04-05T09:17:45;101125.19;;;10.47;36.26
19005;BME280;9635;52.078;8.648;2023-04-05T09:22:48;101118.13;;;10.84;35.21
19005;BME280;9635;52.078;8.648;2023-04-05T09:27:55;101126.81;;;10.75;34.40
19005;BME280;9635;52.078;8.648;2023-04-05T09:32:58;101114.06;;;10.78;33.07
19005;BME280;9635;52.078;8.648;2023-04-05T09:38:03;101115.03;;;10.65;33.48
19005;BME280;9635;52.078;8.648;2023-04-05T09:43:10;101105.09;;;10.52;32.75
19005;BME280;9635;52.078;8.648;2023-04-05T09:48:13;101105.00;;;10.79;33.64
19005;BME280;9635;52.078;8.648;2023-04-05T09:53:16;101103.16;;;11.18;33.05
19005;BME280;9635;52.078;8.648;2023-04-05T09:58:31;101101.59;;;11.40;31.58
19005;BME280;9635;52.078;8.648;2023-04-05T10:03:45;101102.81;;;11.10;31.90
19005;BME280;9635;52.078;8.648;2023-04-05T10:08:49;101089.66;;;11.68;31.74
19005;BME280;9635;52.078;8.648;2023-04-05T10:13:54;101088.84;;;12.03;31.76
19005;BME280;9635;52.078;8.648;2023-04-05T10:18:57;101079.47;;;12.77;31.40
19005;BME280;9635;52.078;8.648;2023-04-05T10:24:04;101076.91;;;12.76;29.73
19005;BME280;9635;52.078;8.648;2023-04-05T10:29:17;101078.00;;;12.96;29.10
19005;BME280;9635;52.078;8.648;2023-04-05T10:34:29;101071.44;;;12.31;31.05
19005;BME280;9635;52.078;8.648;2023-04-05T10:39:35;101072.44;;;12.30;30.13
19005;BME280;9635;52.078;8.648;2023-04-05T10:44:45;101069.00;;;11.68;30.67
19005;BME280;9635;52.078;8.648;2023-04-05T10:49:52;101061.72;;;12.97;30.51
19005;BME280;9635;52.078;8.648;2023-04-05T10:54:57;101064.03;;;13.68;29.82
19005;BME280;9635;52.078;8.648;2023-04-05T11:00:02;101048.31;;;14.78;28.33
19005;BME280;9635;52.078;8.648;2023-04-05T11:05:09;101046.44;;;16.74;25.99
19005;BME280;9635;52.078;8.648;2023-04-05T11:10:29;101040.59;;;16.79;26.24
19005;BME280;9635;52.078;8.648;2023-04-05T11:15:35;101046.53;;;18.19;24.95
19005;BME280;9635;52.078;8.648;2023-04-05T11:20:42;101035.59;;;18.37;24.04
19005;BME280;9635;52.078;8.648;2023-04-05T11:25:49;101031.50;;;16.98;23.99
19005;BME280;9635;52.078;8.648;2023-04-05T11:30:54;101030.94;;;16.94;23.72
19005;BME280;9635;52.078;8.648;2023-04-05T11:36:00;101017.06;;;16.03;25.43
19005;BME280;9635;52.078;8.648;2023-04-05T11:41:11;101010.00;;;16.40;25.50
19005;BME280;9635;52.078;8.648;2023-04-05T11:46:20;101015.66;;;16.93;24.98
19005;BME280;9635;52.078;8.648;2023-04-05T11:51:23;101005.41;;;16.59;24.51
19005;BME280;9635;52.078;8.648;2023-04-05T11:56:29;100997.03;;;16.43;25.55
19005;BME280;9635;52.078;8.648;2023-04-05T12:01:33;100997.22;;;18.14;25.19
19005;BME280;9635;52.078;8.648;2023-04-05T12:06:37;100979.31;;;17.04;23.34
19005;BME280;9635;52.078;8.648;2023-04-05T12:11:39;100972.50;;;16.25;24.58
19005;BME280;9635;52.078;8.648;2023-04-05T12:16:48;100974.16;;;15.89;25.20
19005;BME280;9635;52.078;8.648;2023-04-05T12:21:51;100975.81;;;15.22;26.32
19005;BME280;9635;52.078;8.648;2023-04-05T12:26:54;100962.47;;;16.73;25.06
19005;BME280;9635;52.078;8.648;2023-04-05T12:32:02;100964.03;;;17.03;24.52
19005;BME280;9635;52.078;8.648;2023-04-05T12:37:05;100951.53;;;16.65;23.75
19005;BME280;9635;52.078;8.648;2023-04-05T12:42:16;100950.53;;;16.93;23.65
19005;BME280;9635;52.078;8.648;2023-04-05T12:47:20;100941.91;;;15.96;23.35
19005;BME280;9635;52.078;8.648;2023-04-05T12:52:25;100933.44;;;17.64;23.95
19005;BME280;9635;52.078;8.648;2023-04-05T12:57:29;100927.63;;;19.14;23.59
19005;BME280;9635;52.078;8.648;2023-04-05T13:02:34;100923.91;;;19.40;21.56
19005;BME280;9635;52.078;8.648;2023-04-05T13:07:37;100915.63;;;18.48;22.59
19005;BME280;9635;52.078;8.648;2023-04-05T13:12:40;100917.06;;;19.11;23.63
19005;BME280;9635;52.078;8.648;2023-04-05T13:17:45;100908.94;;;18.77;21.89
19005;BME280;9635;52.078;8.648;2023-04-05T13:22:50;100898.34;;;19.24;21.52
19005;BME280;9635;52.078;8.648;2023-04-05T13:27:53;100904.28;;;18.53;22.51
19005;BME280;9635;52.078;8.648;2023-04-05T13:32:57;100906.94;;;17.84;23.77
19005;BME280;9635;52.078;8.648;2023-04-05T13:38:00;100899.00;;;18.17;23.87
19005;BME280;9635;52.078;8.648;2023-04-05T13:43:05;100903.88;;;17.61;22.43
19005;BME280;9635;52.078;8.648;2023-04-05T13:48:09;100890.47;;;17.86;22.25
19005;BME280;9635;52.078;8.648;2023-04-05T13:53:12;100888.75;;;15.85;24.02
19005;BME280;9635;52.078;8.648;2023-04-05T13:58:16;100883.75;;;17.28;24.94
19005;BME280;9635;52.078;8.648;2023-04-05T14:03:20;100877.03;;;17.84;22.24
19005;BME280;9635;52.078;8.648;2023-04-05T14:08:23;100864.78;;;17.80;23.51
19005;BME280;9635;52.078;8.648;2023-04-05T14:13:26;100857.09;;;18.28;23.34
19005;BME280;9635;52.078;8.648;2023-04-05T14:18:30;100853.91;;;18.41;22.33
19005;BME280;9635;52.078;8.648;2023-04-05T14:23:33;100855.78;;;17.36;22.72
19005;BME280;9635;52.078;8.648;2023-04-05T14:28:39;100837.19;;;17.67;22.44
19005;BME280;9635;52.078;8.648;2023-04-05T14:33:43;100838.94;;;17.76;23.55
19005;BME280;9635;52.078;8.648;2023-04-05T14:38:46;100834.69;;;17.47;22.28
19005;BME280;9635;52.078;8.648;2023-04-05T14:43:49;100835.16;;;17.07;23.22
19005;BME280;9635;52.078;8.648;2023-04-05T14:48:53;100829.03;;;17.05;23.56
19005;BME280;9635;52.078;8.648;2023-04-05T14:53:56;100829.13;;;16.95;22.39
19005;BME280;9635;52.078;8.648;2023-04-05T14:58:59;100824.47;;;17.23;23.46
19005;BME280;9635;52.078;8.648;2023-04-05T15:04:04;100813.09;;;17.46;21.83
19005;BME280;9635;52.078;8.648;2023-04-05T15:09:10;100819.13;;;17.14;22.91
19005;BME280;9635;52.078;8.648;2023-04-05T15:14:12;100818.47;;;16.48;23.16
19005;BME280;9635;52.078;8.648;2023-04-05T15:19:33;100804.34;;;16.45;23.91
19005;BME280;9635;52.078;8.648;2023-04-05T15:24:37;100805.28;;;16.35;23.67
19005;BME280;9635;52.078;8.648;2023-04-05T15:29:40;100797.53;;;16.13;22.76
19005;BME280;9635;52.078;8.648;2023-04-05T15:34:45;100800.44;;;16.02;23.63
19005;BME280;9635;52.078;8.648;2023-04-05T15:39:48;100793.19;;;16.48;24.05
19005;BME280;9635;52.078;8.648;2023-04-05T15:44:50;100788.56;;;16.58;23.17
19005;BME280;9635;52.078;8.648;2023-04-05T15:49:56;100787.16;;;15.99;22.83
19005;BME280;9635;52.078;8.648;2023-04-05T15:54:58;100783.91;;;15.95;23.66
19005;BME280;9635;52.078;8.648;2023-04-05T16:00:01;100775.22;;;15.64;23.95
19005;BME280;9635;52.078;8.648;2023-04-05T16:05:07;100777.94;;;16.19;24.49
19005;BME280;9635;52.078;8.648;2023-04-05T16:10:10;100782.13;;;14.01;25.03
19005;BME280;9635;52.078;8.648;2023-04-05T16:15:13;100774.63;;;13.43;25.49
19005;BME280;9635;52.078;8.648;2023-04-05T16:20:17;100769.06;;;13.66;25.65
19005;BME280;9635;52.078;8.648;2023-04-05T16:25:20;100771.78;;;13.03;27.39
19005;BME280;9635;52.078;8.648;2023-04-05T16:30:23;100757.03;;;13.49;25.73
19005;BME280;9635;52.078;8.648;2023-04-05T16:35:28;100768.50;;;13.20;26.24
19005;BME280;9635;52.078;8.648;2023-04-05T16:40:31;100766.25;;;13.46;25.70
19005;BME280;9635;52.078;8.648;2023-04-05T16:45:34;100766.00;;;13.28;26.41
19005;BME280;9635;52.078;8.648;2023-04-05T16:50:39;100762.00;;;13.44;26.57
19005;BME280;9635;52.078;8.648;2023-04-05T16:55:42;100758.50;;;13.53;26.80
19005;BME280;9635;52.078;8.648;2023-04-05T17:00:45;100758.75;;;13.08;27.16
19005;BME280;9635;52.078;8.648;2023-04-05T17:05:49;100760.34;;;12.90;27.82
19005;BME280;9635;52.078;8.648;2023-04-05T17:10:52;100758.03;;;12.85;27.27
19005;BME280;9635;52.078;8.648;2023-04-05T17:15:55;100757.13;;;12.64;28.07
19005;BME280;9635;52.078;8.648;2023-04-05T17:21:00;100761.91;;;12.16;28.37
19005;BME280;9635;52.078;8.648;2023-04-05T17:26:03;100758.38;;;11.60;29.57
19005;BME280;9635;52.078;8.648;2023-04-05T17:31:06;100760.28;;;11.13;30.23
19005;BME280;9635;52.078;8.648;2023-04-05T17:36:10;100751.84;;;10.71;31.41
19005;BME280;9635;52.078;8.648;2023-04-05T17:41:13;100758.75;;;10.38;32.23
19005;BME280;9635;52.078;8.648;2023-04-05T17:46:16;100755.47;;;9.98;33.29
19005;BME280;9635;52.078;8.648;2023-04-05T17:51:32;100756.78;;;9.66;33.55
19005;BME280;9635;52.078;8.648;2023-04-05T17:56:35;100756.38;;;9.47;33.90
19005;BME280;9635;52.078;8.648;2023-04-05T18:01:38;100761.19;;;9.29;34.41
19005;BME280;9635;52.078;8.648;2023-04-05T18:06:42;100753.25;;;9.15;34.62
19005;BME280;9635;52.078;8.648;2023-04-05T18:11:45;100757.19;;;8.96;34.50
19005;BME280;9635;52.078;8.648;2023-04-05T18:16:48;100762.66;;;8.82;35.01
19005;BME280;9635;52.078;8.648;2023-04-05T18:21:53;100767.31;;;8.66;35.34
19005;BME280;9635;52.078;8.648;2023-04-05T18:26:55;100774.34;;;8.54;35.73
19005;BME280;9635;52.078;8.648;2023-04-05T18:31:58;100771.22;;;8.47;36.18
19005;BME280;9635;52.078;8.648;2023-04-05T18:37:03;100776.69;;;8.46;36.17
19005;BME280;9635;52.078;8.648;2023-04-05T18:42:06;100782.50;;;8.38;36.41
19005;BME280;9635;52.078;8.648;2023-04-05T18:47:09;100791.78;;;8.32;36.80
19005;BME280;9635;52.078;8.648;2023-04-05T18:52:13;100786.72;;;8.28;36.90
19005;BME280;9635;52.078;8.648;2023-04-05T18:57:22;100784.88;;;8.15;37.24
19005;BME280;9635;52.078;8.648;2023-04-05T19:02:26;100798.81;;;8.06;37.17
19005;BME280;9635;52.078;8.648;2023-04-05T19:07:31;100799.03;;;7.89;37.24
19005;BME280;9635;52.078;8.648;2023-04-05T19:12:34;100806.88;;;7.78;37.38
19005;BME280;9635;52.078;8.648;2023-04-05T19:17:36;100817.84;;;7.73;37.51
19005;BME280;9635;52.078;8.648;2023-04-05T19:22:41;100815.50;;;7.68;37.98
19005;BME280;9635;52.078;8.648;2023-04-05T19:27:44;100820.34;;;7.62;38.37
19005;BME280;9635;52.078;8.648;2023-04-05T19:32:47;100822.63;;;7.54;38.74
19005;BME280;9635;52.078;8.648;2023-04-05T19:37:51;100815.84;;;7.34;39.25
19005;BME280;9635;52.078;8.648;2023-04-05T19:42:54;100817.03;;;7.14;39.29
19005;BME280;9635;52.078;8.648;2023-04-05T19:47:59;100820.78;;;6.95;39.18
19005;BME280;9635;52.078;8.648;2023-04-05T19:53:06;100811.50;;;6.87;39.10
19005;BME280;9635;52.078;8.648;2023-04-05T19:58:09;100818.72;;;6.84;39.64
19005;BME280;9635;52.078;8.648;2023-04-05T20:03:27;100810.91;;;6.81;39.88
19005;BME280;9635;52.078;8.648;2023-04-05T20:08:33;100811.44;;;6.72;40.32
19005;BME280;9635;52.078;8.648;2023-04-05T20:13:40;100811.78;;;6.66;40.68
19005;BME280;9635;52.078;8.648;2023-04-05T20:18:44;100805.75;;;6.62;40.85
19005;BME280;9635;52.078;8.648;2023-04-05T20:23:49;100812.13;;;6.60;41.29
19005;BME280;9635;52.078;8.648;2023-04-05T20:28:52;100797.88;;;6.29;41.61
19005;BME280;9635;52.078;8.648;2023-04-05T20:33:57;100804.41;;;6.24;42.00
19005;BME280;9635;52.078;8.648;2023-04-05T20:39:03;100800.97;;;6.22;42.00
19005;BME280;9635;52.078;8.648;2023-04-05T20:44:06;100805.88;;;6.13;41.96
19005;BME280;9635;52.078;8.648;2023-04-05T20:49:09;100798.75;;;5.98;42.41
19005;BME280;9635;52.078;8.648;2023-04-05T20:54:14;100797.88;;;5.82;42.91
19005;BME280;9635;52.078;8.648;2023-04-05T20:59:17;100796.97;;;5.81;43.19
19005;BME280;9635;52.078;8.648;2023-04-05T21:04:20;100799.19;;;5.73;43.39
19005;BME280;9635;52.078;8.648;2023-04-05T21:09:24;100788.88;;;5.67;43.41
19005;BME280;9635;52.078;8.648;2023-04-05T21:14:28;100784.22;;;5.55;43.46
19005;BME280;9635;52.078;8.648;2023-04-05T21:19:31;100782.81;;;5.47;43.66
19005;BME280;9635;52.078;8.648;2023-04-05T21:24:35;100784.53;;;5.48;43.69
19005;BME280;9635;52.078;8.648;2023-04-05T21:29:38;100775.50;;;5.35;43.66
19005;BME280;9635;52.078;8.648;2023-04-05T21:34:40;100782.94;;;5.28;43.75
19005;BME280;9635;52.078;8.648;2023-04-05T21:39:45;100781.63;;;5.20;43.86
19005;BME280;9635;52.078;8.648;2023-04-05T21:44:47;100779.91;;;5.19;43.92
19005;BME280;9635;52.078;8.648;2023-04-05T21:49:50;100780.38;;;5.10;43.95
19005;BME280;9635;52.078;8.648;2023-04-05T21:54:55;100789.63;;;5.02;44.05
19005;BME280;9635;52.078;8.648;2023-04-05T21:59:58;100784.19;;;5.04;44.13
19005;BME280;9635;52.078;8.648;2023-04-05T22:05:02;100790.53;;;5.01;44.42
19005;BME280;9635;52.078;8.648;2023-04-05T22:10:07;100788.41;;;4.91;44.63
19005;BME280;9635;52.078;8.648;2023-04-05T22:15:10;100795.22;;;4.79;45.22
19005;BME280;9635;52.078;8.648;2023-04-05T22:20:13;100791.38;;;4.67;45.41
19005;BME280;9635;52.078;8.648;2023-04-05T22:25:17;100771.72;;;4.70;45.62
19005;BME280;9635;52.078;8.648;2023-04-05T22:30:20;100767.44;;;4.67;45.63
19005;BME280;9635;52.078;8.648;2023-04-05T22:35:23;100768.19;;;4.52;45.85
19005;BME280;9635;52.078;8.648;2023-04-05T22:40:27;100771.09;;;4.47;46.32
19005;BME280;9635;52.078;8.648;2023-04-05T22:45:30;100758.53;;;4.32;46.49
19005;BME280;9635;52.078;8.648;2023-04-05T22:50:33;100762.25;;;4.28;46.82
19005;BME280;9635;52.078;8.648;2023-04-05T22:55:37;100753.94;;;4.16;47.01
19005;BME280;9635;52.078;8.648;2023-04-05T23:00:40;100743.91;;;4.04;47.15
19005;BME280;9635;52.078;8.648;2023-04-05T23:05:43;100750.31;;;4.00;47.34
19005;BME280;9635;52.078;8.648;2023-04-05T23:10:47;100736.31;;;3.97;47.40
19005;BME280;9635;52.078;8.648;2023-04-05T23:15:50;100741.06;;;3.90;47.45
19005;BME280;9635;52.078;8.648;2023-04-05T23:20:53;100732.84;;;3.94;47.06
19005;BME280;9635;52.078;8.648;2023-04-05T23:25:57;100727.47;;;3.96;47.41
19005;BME280;9635;52.078;8.648;2023-04-05T23:31:00;100726.81;;;3.91;47.41
19005;BME280;9635;52.078;8.648;2023-04-05T23:36:03;100729.34;;;3.94;47.04
19005;BME280;9635;52.078;8.648;2023-04-05T23:41:08;100723.38;;;3.89;46.97
19005;BME280;9635;52.078;8.648;2023-04-05T23:46:11;100718.06;;;3.89;46.63
19005;BME280;9635;52.078;8.648;2023-04-05T23:51:14;100718.84;;;3.91;46.64
19005;BME280;9635;52.078;8.648;2023-04-05T23:56:18;100708.94;;;3.94;46.19
